createdAt,value
2022-11-24T00:00:14.439Z,22.75
2022-11-24T00:02:41.402Z,21.52
2022-11-24T00:05:08.431Z,27.15
2022-11-24T00:07:35.305Z,21.15
2022-11-24T00:10:02.680Z,20.30
2022-11-24T00:12:30.308Z,26.77
2022-11-24T00:14:57.101Z,22.25
2022-11-24T00:17:23.923Z,21.73
2022-11-24T00:19:50.749Z,22.48
2022-11-24T00:22:17.704Z,20.13
2022-11-24T00:24:44.520Z,21.75
2022-11-24T00:27:11.372Z,21.80
2022-11-24T00:29:38.248Z,21.80
2022-11-24T00:32:06.721Z,21.02
2022-11-24T00:34:34.123Z,22.10
2022-11-24T00:37:01.214Z,21.40
2022-11-24T00:39:28.145Z,22.50
2022-11-24T00:41:54.962Z,24.70
2022-11-24T00:44:21.809Z,21.58
2022-11-24T00:46:48.893Z,24.75
2022-11-24T00:49:15.885Z,21.70
2022-11-24T00:51:42.821Z,25.08
2022-11-24T00:54:10.021Z,23.73
2022-11-24T00:56:37.055Z,21.23
2022-11-24T00:59:04.205Z,25.25
2022-11-24T01:01:34.215Z,22.33
2022-11-24T01:04:04.105Z,22.00
2022-11-24T01:06:32.779Z,21.95
2022-11-24T01:08:59.766Z,22.75
2022-11-24T01:11:51.189Z,23.05
2022-11-24T01:14:18.623Z,22.17
2022-11-24T01:16:45.445Z,22.17
2022-11-24T01:19:12.423Z,22.58
2022-11-24T01:21:39.289Z,22.65
2022-11-24T01:24:06.368Z,23.25
2022-11-24T01:26:33.256Z,22.05
2022-11-24T01:29:00.151Z,22.42
2022-11-24T01:31:27.342Z,21.45
2022-11-24T01:33:54.661Z,26.02
2022-11-24T01:36:21.813Z,24.65
2022-11-24T01:38:48.763Z,25.75
2022-11-24T01:41:17.399Z,25.27
2022-11-24T01:43:45.156Z,24.67
2022-11-24T01:46:15.335Z,24.85
2022-11-24T01:48:44.873Z,27.20
2022-11-24T01:51:15.155Z,27.67
2022-11-24T01:53:44.356Z,27.30
2022-11-24T01:56:12.017Z,30.70
2022-11-24T01:58:40.495Z,28.00
2022-11-24T02:01:07.588Z,27.08
2022-11-24T02:03:35.641Z,29.42
2022-11-24T02:06:11.344Z,31.10
2022-11-24T02:08:45.113Z,28.48
2022-11-24T02:11:11.951Z,29.15
2022-11-24T02:13:40.004Z,27.98
2022-11-24T02:16:07.802Z,27.05
2022-11-24T02:18:34.951Z,33.38
2022-11-24T02:21:01.785Z,29.05
2022-11-24T02:23:37.198Z,26.25
2022-11-24T02:26:07.088Z,27.05
2022-11-24T02:28:34.030Z,28.40
2022-11-24T02:31:01.064Z,27.13
2022-11-24T02:33:28.349Z,24.98
2022-11-24T02:35:55.159Z,32.75
2022-11-24T02:38:35.303Z,28.17
2022-11-24T02:41:05.160Z,24.73
2022-11-24T02:43:34.323Z,27.30
2022-11-24T02:46:01.197Z,28.75
2022-11-24T02:48:28.469Z,29.48
2022-11-24T02:50:55.256Z,30.90
2022-11-24T02:53:22.022Z,29.85
2022-11-24T02:55:48.952Z,28.85
2022-11-24T02:58:16.064Z,32.22
2022-11-24T03:00:42.892Z,31.60
2022-11-24T03:03:09.804Z,26.77
2022-11-24T03:05:36.671Z,28.13
2022-11-24T03:08:03.628Z,26.52
2022-11-24T03:10:30.453Z,29.83
2022-11-24T03:12:57.299Z,30.83
2022-11-24T03:15:24.298Z,29.33
2022-11-24T03:17:51.301Z,30.30
2022-11-24T03:20:18.860Z,30.38
2022-11-24T03:22:45.662Z,32.63
2022-11-24T03:25:12.508Z,31.42
2022-11-24T03:27:40.778Z,33.97
2022-11-24T03:30:08.058Z,30.60
2022-11-24T03:32:35.018Z,29.98
2022-11-24T03:35:02.074Z,30.27
2022-11-24T03:37:30.375Z,32.03
2022-11-24T03:39:57.279Z,34.42
2022-11-24T03:42:24.097Z,33.13
2022-11-24T03:44:51.118Z,32.35
2022-11-24T03:47:18.023Z,30.67
2022-11-24T03:49:44.902Z,31.38
2022-11-24T03:52:11.791Z,34.17
2022-11-24T03:54:38.780Z,31.23
2022-11-24T03:57:05.654Z,28.08
2022-11-24T03:59:32.574Z,34.35
2022-11-24T04:01:59.435Z,32.92
2022-11-24T04:04:26.422Z,33.35
2022-11-24T04:06:53.290Z,32.38
2022-11-24T04:09:20.305Z,31.90
2022-11-24T04:12:05.590Z,34.70
2022-11-24T04:14:32.815Z,33.83
2022-11-24T04:17:01.164Z,33.85
2022-11-24T04:19:30.270Z,36.53
2022-11-24T04:21:57.023Z,32.65
2022-11-24T04:24:23.868Z,32.85
2022-11-24T04:26:50.749Z,33.08
2022-11-24T04:29:17.545Z,34.20
2022-11-24T04:31:44.415Z,29.40
2022-11-24T04:34:11.571Z,34.25
2022-11-24T04:36:38.312Z,36.53
2022-11-24T04:39:24.291Z,36.60
2022-11-24T04:41:51.656Z,35.45
2022-11-24T04:44:18.411Z,36.88
2022-11-24T04:46:45.192Z,36.00
2022-11-24T04:49:12.090Z,33.85
2022-11-24T04:51:39.488Z,37.35
2022-11-24T04:54:11.159Z,37.42
2022-11-24T04:56:38.018Z,32.22
2022-11-24T04:59:08.438Z,31.95
2022-11-24T05:01:35.558Z,33.80
2022-11-24T05:04:02.448Z,36.45
2022-11-24T05:06:29.222Z,30.70
2022-11-24T05:08:55.993Z,33.45
2022-11-24T05:11:22.684Z,37.60
2022-11-24T05:13:49.471Z,34.40
2022-11-24T05:16:16.195Z,34.90
2022-11-24T05:18:42.905Z,32.30
2022-11-24T05:21:09.613Z,33.88
2022-11-24T05:23:36.386Z,35.10
2022-11-24T05:26:03.699Z,40.75
2022-11-24T05:28:30.751Z,35.65
2022-11-24T05:31:01.120Z,32.58
2022-11-24T05:35:55.982Z,35.78
2022-11-24T05:38:23.813Z,33.65
2022-11-24T05:40:50.506Z,35.05
2022-11-24T05:43:17.591Z,33.60
2022-11-24T05:45:44.493Z,30.88
2022-11-24T05:48:13.185Z,35.20
2022-11-24T05:50:39.886Z,40.53
2022-11-24T05:53:08.283Z,41.55
2022-11-24T05:55:35.466Z,40.55
2022-11-24T05:58:03.118Z,42.20
2022-11-24T06:00:30.522Z,29.73
2022-11-24T06:02:57.494Z,32.92
2022-11-24T06:05:24.409Z,33.70
2022-11-24T06:07:52.353Z,32.05
2022-11-24T06:10:20.055Z,33.95
2022-11-24T06:12:47.196Z,32.70
2022-11-24T06:15:13.978Z,31.52
2022-11-24T06:17:40.915Z,30.98
2022-11-24T06:20:08.126Z,31.35
2022-11-24T06:22:34.880Z,35.88
2022-11-24T06:25:01.844Z,38.20
2022-11-24T06:27:30.518Z,31.83
2022-11-24T06:29:57.245Z,35.08
2022-11-24T06:32:24.357Z,35.30
2022-11-24T06:34:51.057Z,36.40
2022-11-24T06:37:17.788Z,37.40
2022-11-24T06:39:44.541Z,36.33
2022-11-24T06:42:11.245Z,34.40
2022-11-24T06:44:38.015Z,36.50
2022-11-24T06:47:04.956Z,31.80
2022-11-24T06:49:31.651Z,33.20
2022-11-24T06:51:58.443Z,33.80
2022-11-24T06:54:25.140Z,26.45
2022-11-24T06:56:55.999Z,28.42
2022-11-24T06:59:22.745Z,29.85
2022-11-24T07:01:49.516Z,26.80
2022-11-24T07:04:16.897Z,27.25
2022-11-24T07:06:43.700Z,29.95
2022-11-24T07:09:11.185Z,31.05
2022-11-24T07:11:38.230Z,28.80
2022-11-24T07:14:05.087Z,32.55
2022-11-24T07:16:31.942Z,31.35
2022-11-24T07:18:58.969Z,34.58
2022-11-24T07:21:26.203Z,36.22
2022-11-24T07:23:53.998Z,30.27
2022-11-24T07:26:21.120Z,32.63
2022-11-24T07:28:47.935Z,33.88
2022-11-24T07:31:15.726Z,28.90
2022-11-24T07:33:42.474Z,27.60
2022-11-24T07:36:09.335Z,28.40
2022-11-24T07:38:36.473Z,31.48
2022-11-24T07:41:04.636Z,24.40
2022-11-24T07:43:31.948Z,27.17
2022-11-24T07:45:59.256Z,27.27
2022-11-24T07:48:26.054Z,27.00
2022-11-24T07:50:56.067Z,24.77
2022-11-24T07:53:23.191Z,28.95
2022-11-24T07:55:56.719Z,25.98
2022-11-24T07:58:25.538Z,27.60
2022-11-24T08:00:55.887Z,30.65
2022-11-24T08:03:22.779Z,30.58
2022-11-24T08:06:16.471Z,30.63
2022-11-24T08:08:42.885Z,29.25
2022-11-24T08:11:11.696Z,31.38
2022-11-24T08:13:38.488Z,29.23
2022-11-24T08:16:06.619Z,33.75
2022-11-24T08:18:33.987Z,31.17
2022-11-24T08:21:00.845Z,30.23
2022-11-24T08:23:27.826Z,27.05
2022-11-24T08:25:57.083Z,28.15
2022-11-24T08:28:24.413Z,25.55
2022-11-24T08:30:51.391Z,25.77
2022-11-24T08:33:18.128Z,24.17
2022-11-24T08:35:44.902Z,26.33
2022-11-24T08:38:11.655Z,25.30
2022-11-24T08:40:38.425Z,24.08
2022-11-24T08:43:05.301Z,25.25
2022-11-24T08:45:35.453Z,25.77
2022-11-24T08:48:06.693Z,26.67
2022-11-24T08:50:35.658Z,23.85
2022-11-24T08:53:02.493Z,26.15
2022-11-24T08:55:29.243Z,25.30
2022-11-24T08:57:55.961Z,26.23
2022-11-24T09:00:23.848Z,27.45
2022-11-24T09:02:57.389Z,26.92
2022-11-24T09:05:50.790Z,27.27
2022-11-24T09:08:11.447Z,27.90
2022-11-24T09:10:38.171Z,44.75
2022-11-24T09:13:05.079Z,28.40
2022-11-24T09:15:31.848Z,35.20
2022-11-24T09:17:58.564Z,29.15
2022-11-24T09:20:25.285Z,29.55
2022-11-24T09:22:51.956Z,29.52
2022-11-24T09:25:18.652Z,31.98
2022-11-24T09:27:45.447Z,29.38
2022-11-24T09:30:12.649Z,36.80
2022-11-24T09:32:39.401Z,28.17
2022-11-24T09:35:06.346Z,30.30
2022-11-24T09:37:33.315Z,33.15
2022-11-24T09:40:00.099Z,31.38
2022-11-24T09:42:40.284Z,32.20
2022-11-24T09:45:30.348Z,32.75
2022-11-24T09:48:16.140Z,30.15
2022-11-24T09:50:44.151Z,28.48
2022-11-24T09:53:31.910Z,31.02
2022-11-24T09:56:00.697Z,28.63
2022-11-24T09:58:27.607Z,28.67
2022-11-24T10:00:55.808Z,30.65
2022-11-24T10:03:41.925Z,29.25
2022-11-24T10:06:20.428Z,30.95
2022-11-24T10:09:05.857Z,33.95
2022-11-24T10:11:42.845Z,34.67
2022-11-24T10:14:09.552Z,33.42
2022-11-24T10:16:36.233Z,35.15
2022-11-24T10:19:14.490Z,31.52
2022-11-24T10:21:41.229Z,34.33
2022-11-24T10:24:26.751Z,37.00
2022-11-24T10:27:03.969Z,36.90
2022-11-24T10:29:30.687Z,33.15
2022-11-24T10:31:57.901Z,41.05
2022-11-24T10:34:31.478Z,35.05
2022-11-24T10:37:01.379Z,35.80
2022-11-24T10:39:32.805Z,31.58
2022-11-24T10:42:06.339Z,34.08
2022-11-24T10:44:33.185Z,32.08
2022-11-24T10:47:00.046Z,40.92
2022-11-24T10:49:31.772Z,36.60
2022-11-24T10:52:15.225Z,38.22
2022-11-24T10:54:56.044Z,39.88
2022-11-24T10:57:30.662Z,36.67
2022-11-24T10:59:57.510Z,38.55
2022-11-24T11:02:28.833Z,36.08
2022-11-24T11:04:55.660Z,35.28
2022-11-24T11:07:25.201Z,38.65
2022-11-24T11:10:12.167Z,39.50
2022-11-24T11:12:44.426Z,39.65
2022-11-24T11:15:30.484Z,42.55
2022-11-24T11:17:58.567Z,43.72
2022-11-24T11:20:28.137Z,39.22
2022-11-24T11:22:56.150Z,39.33
2022-11-24T11:25:25.011Z,40.97
2022-11-24T11:27:51.899Z,38.75
2022-11-24T11:36:11.396Z,35.15
2022-11-24T11:38:38.923Z,30.73
2022-11-24T11:41:06.053Z,36.75
2022-11-24T11:43:36.451Z,37.78
2022-11-24T11:46:13.278Z,34.58
2022-11-24T11:48:44.051Z,32.13
2022-11-24T11:51:26.792Z,34.85
2022-11-24T11:54:20.045Z,33.67
2022-11-24T11:56:49.693Z,32.72
2022-11-24T11:59:19.130Z,35.10
2022-11-24T12:02:02.858Z,38.15
2022-11-24T12:04:42.562Z,40.97
2022-11-24T12:07:09.269Z,35.90
2022-11-24T12:09:53.521Z,38.25
2022-11-24T12:12:32.301Z,38.65
2022-11-24T12:15:11.370Z,37.38
2022-11-24T12:17:44.012Z,31.50
2022-11-24T12:20:26.633Z,46.22
2022-11-24T12:22:53.352Z,40.80
2022-11-24T12:25:20.107Z,40.42
2022-11-24T12:27:56.042Z,37.28
2022-11-24T12:30:23.990Z,37.95
2022-11-24T12:33:00.345Z,39.85
2022-11-24T12:35:29.945Z,41.28
2022-11-24T12:37:56.635Z,43.90
2022-11-24T12:40:46.704Z,36.63
2022-11-24T12:45:43.395Z,38.90
2022-11-24T12:48:10.087Z,38.47
2022-11-24T12:50:38.235Z,38.90
2022-11-24T12:53:10.464Z,40.38
2022-11-24T12:55:38.383Z,39.30
2022-11-24T12:58:14.461Z,39.50
2022-11-24T13:00:53.524Z,34.33
2022-11-24T13:03:26.552Z,41.80
2022-11-24T13:06:08.749Z,43.10
2022-11-24T13:08:36.864Z,41.47
2022-11-24T13:11:21.645Z,38.00
2022-11-24T13:14:00.527Z,36.60
2022-11-24T13:16:36.125Z,35.80
2022-11-24T13:19:10.200Z,42.35
2022-11-24T13:21:50.078Z,40.25
2022-11-24T13:24:19.043Z,39.42
2022-11-24T13:26:51.712Z,39.67
2022-11-24T13:29:28.351Z,37.40
2022-11-24T13:31:55.878Z,36.22
2022-11-24T13:34:46.027Z,35.47
2022-11-24T13:37:33.656Z,43.45
2022-11-24T13:40:23.037Z,39.67
2022-11-24T13:43:01.566Z,39.47
2022-11-24T13:45:45.295Z,39.30
2022-11-24T13:48:21.852Z,37.88
2022-11-24T13:51:09.578Z,37.25
2022-11-24T13:53:41.428Z,40.47
2022-11-24T13:56:15.692Z,36.85
2022-11-24T13:58:54.811Z,39.83
2022-11-24T14:01:21.921Z,38.60
2022-11-24T14:04:22.076Z,38.08
2022-11-24T14:06:47.911Z,38.40
2022-11-24T14:09:27.233Z,42.78
2022-11-24T14:11:57.945Z,37.45
2022-11-24T14:14:25.381Z,36.97
2022-11-24T14:17:07.320Z,38.33
2022-11-24T14:19:34.221Z,37.25
2022-11-24T14:22:01.131Z,36.97
2022-11-24T14:24:33.447Z,34.97
2022-11-24T14:27:02.473Z,40.30
2022-11-24T14:29:33.296Z,36.33
2022-11-24T14:32:01.233Z,35.22
2022-11-24T14:34:29.543Z,35.53
2022-11-24T14:36:57.234Z,36.83
2022-11-24T14:39:25.416Z,36.83
2022-11-24T14:41:52.660Z,35.42
2022-11-24T14:44:21.304Z,37.22
2022-11-24T14:46:48.346Z,34.42
2022-11-24T14:49:20.321Z,30.98
2022-11-24T14:51:50.629Z,37.85
2022-11-24T14:54:18.921Z,39.17
2022-11-24T14:57:00.865Z,38.00
2022-11-24T14:59:29.161Z,42.38
2022-11-24T15:01:58.251Z,37.93
2022-11-24T15:07:19.429Z,39.08
2022-11-24T15:09:52.068Z,37.83
2022-11-24T15:12:20.092Z,36.30
2022-11-24T15:14:55.186Z,40.63
2022-11-24T15:17:23.839Z,38.97
2022-11-24T15:20:10.924Z,42.03
2022-11-24T15:22:39.569Z,34.63
2022-11-24T15:25:25.879Z,43.03
2022-11-24T15:27:53.269Z,33.33
2022-11-24T15:30:20.162Z,37.13
2022-11-24T15:32:50.902Z,39.58
2022-11-24T15:35:17.781Z,35.65
2022-11-24T15:37:44.667Z,38.17
2022-11-24T15:40:11.864Z,40.22
2022-11-24T15:42:39.730Z,35.70
2022-11-24T15:45:06.831Z,36.42
2022-11-24T15:47:33.686Z,37.88
2022-11-24T15:50:00.495Z,44.60
2022-11-24T15:52:27.543Z,44.45
2022-11-24T15:54:56.431Z,37.38
2022-11-24T15:57:23.462Z,39.22
2022-11-24T15:59:50.423Z,36.00
2022-11-24T16:02:17.379Z,31.35
2022-11-24T16:04:44.718Z,32.38
2022-11-24T16:07:12.175Z,31.02
2022-11-24T16:09:39.103Z,37.65
2022-11-24T16:12:08.536Z,34.97
2022-11-24T16:17:03.866Z,37.08
2022-11-24T16:19:31.519Z,35.03
2022-11-24T16:21:58.425Z,34.00
2022-11-24T16:24:25.343Z,38.33
2022-11-24T16:26:52.276Z,35.45
2022-11-24T16:29:21.081Z,33.92
2022-11-24T16:31:48.084Z,38.08
2022-11-24T16:34:16.863Z,30.23
2022-11-24T16:36:43.743Z,34.70
2022-11-24T16:39:11.058Z,35.53
2022-11-24T16:41:38.800Z,33.45
2022-11-24T16:44:05.600Z,34.22
2022-11-24T16:46:32.640Z,32.92
2022-11-24T16:49:03.796Z,33.35
2022-11-24T16:51:35.180Z,30.83
2022-11-24T16:54:04.440Z,27.95
2022-11-24T16:56:33.020Z,25.58
2022-11-24T16:59:00.327Z,29.02
2022-11-24T17:01:27.316Z,33.90
2022-11-24T17:03:54.278Z,31.23
2022-11-24T17:06:21.753Z,29.90
2022-11-24T17:08:49.194Z,33.15
2022-11-24T17:11:17.411Z,33.33
2022-11-24T17:13:45.632Z,31.23
2022-11-24T17:16:17.140Z,31.10
2022-11-24T17:18:44.350Z,30.13
2022-11-24T17:21:16.798Z,30.80
2022-11-24T17:23:44.121Z,30.80
2022-11-24T17:26:12.078Z,31.00
2022-11-24T17:28:39.392Z,28.63
2022-11-24T17:31:06.872Z,28.40
2022-11-24T17:33:34.187Z,34.45
2022-11-24T17:36:01.749Z,30.67
2022-11-24T17:38:30.684Z,28.23
2022-11-24T17:40:57.957Z,29.83
2022-11-24T17:43:25.040Z,27.83
2022-11-24T17:45:55.637Z,33.47
2022-11-24T17:48:23.179Z,28.77
2022-11-24T17:51:00.074Z,28.85
2022-11-24T17:53:27.248Z,29.77
2022-11-24T17:55:54.283Z,33.50
2022-11-24T17:58:21.130Z,30.10
2022-11-24T18:00:52.230Z,29.95
2022-11-24T18:03:19.226Z,33.10
2022-11-24T18:05:46.486Z,25.95
2022-11-24T18:08:13.675Z,22.30
2022-11-24T18:10:40.648Z,23.25
2022-11-24T18:13:08.782Z,26.52
2022-11-24T18:15:35.926Z,23.50
2022-11-24T18:18:03.434Z,19.20
2022-11-24T18:20:32.951Z,16.50
2022-11-24T18:23:06.139Z,19.10
2022-11-24T18:25:38.255Z,22.55
2022-11-24T18:28:05.151Z,22.73
2022-11-24T18:30:32.048Z,20.63
2022-11-24T18:32:58.990Z,22.27
2022-11-24T18:35:25.788Z,19.30
2022-11-24T18:37:52.731Z,21.15
2022-11-24T18:40:20.657Z,22.80
2022-11-24T18:42:48.899Z,18.98
2022-11-24T18:45:15.821Z,21.52
2022-11-24T18:47:42.781Z,21.50
2022-11-24T18:50:09.700Z,21.92
2022-11-24T18:52:36.648Z,21.65
2022-11-24T18:55:05.003Z,19.73
2022-11-24T18:57:31.883Z,22.77
2022-11-24T18:59:59.046Z,19.55
2022-11-24T19:02:25.988Z,22.55
2022-11-24T19:04:52.820Z,18.73
2022-11-24T19:07:21.178Z,18.40
2022-11-24T19:09:48.121Z,19.00
2022-11-24T19:12:15.047Z,24.52
2022-11-24T19:14:42.234Z,21.88
2022-11-24T19:17:09.123Z,20.67
2022-11-24T19:19:36.483Z,19.63
2022-11-24T19:22:04.071Z,21.17
2022-11-24T19:24:30.969Z,18.25
2022-11-24T19:26:57.898Z,23.20
2022-11-24T19:29:24.866Z,19.48
2022-11-24T19:31:53.838Z,25.77
2022-11-24T19:34:20.725Z,20.17
2022-11-24T19:36:47.566Z,23.05
2022-11-24T19:39:15.754Z,22.67
2022-11-24T19:41:42.578Z,24.40
2022-11-24T19:44:11.014Z,18.42
2022-11-24T19:46:38.056Z,25.60
2022-11-24T19:49:05.019Z,22.33
2022-11-24T19:51:33.293Z,23.70
2022-11-24T19:54:00.398Z,21.85
2022-11-24T19:56:28.383Z,23.33
2022-11-24T19:58:55.660Z,31.73
2022-11-24T20:01:30.036Z,21.92
2022-11-24T20:04:01.589Z,23.33
2022-11-24T20:06:29.789Z,25.25
2022-11-24T20:09:00.630Z,24.23
2022-11-24T20:11:29.299Z,22.02
2022-11-24T20:13:56.564Z,19.65
2022-11-24T20:16:29.708Z,23.70
2022-11-24T20:18:58.114Z,27.55
2022-11-24T20:21:25.784Z,24.38
2022-11-24T20:23:56.926Z,25.08
2022-11-24T20:26:24.873Z,29.45
2022-11-24T20:28:53.268Z,22.42
2022-11-24T20:31:22.661Z,22.98
2022-11-24T20:33:49.818Z,25.52
2022-11-24T20:36:18.227Z,23.73
2022-11-24T20:38:45.918Z,25.85
2022-11-24T20:41:14.269Z,25.42
2022-11-24T20:43:41.807Z,27.75
2022-11-24T20:46:13.236Z,19.02
2022-11-24T20:48:40.304Z,17.48
2022-11-24T20:51:08.465Z,17.15
2022-11-24T20:53:36.083Z,19.75
2022-11-24T20:56:06.179Z,16.13
2022-11-24T21:01:04.724Z,14.80
2022-11-24T21:03:31.806Z,15.13
2022-11-24T21:05:58.750Z,16.58
2022-11-24T21:08:25.594Z,12.00
2022-11-24T21:10:53.783Z,16.23
2022-11-24T21:13:20.775Z,14.10
2022-11-24T21:15:47.585Z,16.00
2022-11-24T21:18:14.493Z,16.25
2022-11-24T21:20:41.319Z,18.08
2022-11-24T21:23:08.398Z,16.60
2022-11-24T21:25:35.251Z,20.98
2022-11-24T21:28:02.155Z,15.60
2022-11-24T21:30:29.906Z,14.77
2022-11-24T21:32:56.901Z,13.07
2022-11-24T21:35:23.712Z,17.70
2022-11-24T21:37:50.796Z,16.00
2022-11-24T21:40:17.599Z,15.15
2022-11-24T21:42:44.458Z,15.13
2022-11-24T21:45:11.968Z,13.88
2022-11-24T21:47:38.982Z,14.80
2022-11-24T21:50:06.772Z,21.40
2022-11-24T21:52:33.586Z,16.65
2022-11-24T21:55:00.479Z,14.85
2022-11-24T21:57:28.453Z,17.77
2022-11-24T21:59:55.336Z,17.38
2022-11-24T22:02:22.229Z,18.45
2022-11-24T22:04:49.119Z,18.33
2022-11-24T22:07:16.018Z,16.52
2022-11-24T22:09:43.470Z,17.90
2022-11-24T22:12:10.353Z,17.42
2022-11-24T22:14:40.363Z,19.20
2022-11-24T22:17:07.791Z,18.38
2022-11-24T22:19:34.599Z,18.60
2022-11-24T22:22:01.427Z,16.17
2022-11-24T22:24:28.247Z,18.77
2022-11-24T22:26:55.151Z,13.88
2022-11-24T22:29:22.041Z,18.77
2022-11-24T22:31:49.366Z,17.13
2022-11-24T22:34:16.303Z,16.77
2022-11-24T22:36:43.193Z,18.63
2022-11-24T22:39:11.583Z,16.20
2022-11-24T22:41:38.699Z,19.42
2022-11-24T22:44:05.822Z,19.35
2022-11-24T22:46:32.830Z,18.23
2022-11-24T22:49:00.323Z,18.23
2022-11-24T22:51:32.565Z,17.52
2022-11-24T22:54:00.728Z,16.70
2022-11-24T22:56:33.619Z,17.27
2022-11-24T22:59:01.178Z,15.35
2022-11-24T23:01:28.513Z,14.43
2022-11-24T23:03:55.650Z,11.45
2022-11-24T23:06:23.689Z,12.32
2022-11-24T23:08:51.322Z,12.20
2022-11-24T23:11:19.356Z,13.48
2022-11-24T23:13:46.221Z,11.20
2022-11-24T23:16:14.470Z,11.20
2022-11-24T23:18:41.937Z,17.27
2022-11-24T23:21:11.320Z,11.35
2022-11-24T23:23:38.529Z,11.13
2022-11-24T23:26:06.812Z,11.30
2022-11-24T23:28:33.700Z,12.95
2022-11-24T23:31:01.930Z,13.27
2022-11-24T23:33:28.797Z,10.98
2022-11-24T23:35:55.604Z,12.68
2022-11-24T23:38:28.729Z,11.25
2022-11-24T23:41:04.622Z,10.68
2022-11-24T23:43:32.309Z,12.32
2022-11-24T23:46:18.649Z,11.32
2022-11-24T23:48:45.650Z,11.48
2022-11-24T23:51:16.646Z,10.70
2022-11-24T23:53:44.052Z,10.80
2022-11-24T23:56:20.921Z,13.43
2022-11-24T23:58:47.777Z,10.07
